Time;durP1;ratioP1;P1;durP2;ratioP2;P2;SDS_P1;SDS_P2;PMS_P1;PMS_P2;Temp;Humidity;BMP_temperature;BMP_pressure;BME280_temperature;BME280_humidity;BME280_pressure;Samples;Min_cycle;Max_cycle;Signal;HPM_P1;HPM_P2
2023/04/05 00:00:29;;;;;;;15.10;14.10;;;2.30;91.90;;;;;;4723847;30;20918;-43
2023/04/05 00:02:58;;;;;;;16.60;15.00;;;2.30;92.10;;;;;;4738493;30;20426;-46
2023/04/05 00:05:30;;;;;;;15.20;14.10;;;2.30;92.20;;;;;;4728390;30;20194;-47
2023/04/05 00:08:00;;;;;;;15.40;14.30;;;2.30;92.10;;;;;;4739788;30;20359;-50
2023/04/05 00:10:36;;;;;;;15.63;14.43;;;2.10;92.20;;;;;;4728280;30;20181;-46
2023/04/05 00:13:01;;;;;;;15.15;14.02;;;2.10;92.40;;;;;;4740426;30;20555;-43
2023/04/05 00:15:27;;;;;;;15.10;14.00;;;2.10;92.70;;;;;;4739612;30;20201;-48
2023/04/05 00:17:53;;;;;;;14.27;13.37;;;2.10;93.00;;;;;;4739965;30;20197;-45
2023/04/05 00:20:19;;;;;;;15.48;14.43;;;2.10;93.30;;;;;;4739740;30;20291;-48
2023/04/05 00:22:45;;;;;;;14.10;13.20;;;2.10;93.40;;;;;;4739641;30;20539;-46
2023/04/05 00:25:11;;;;;;;14.88;13.98;;;2.10;93.50;;;;;;4739466;30;20199;-44
2023/04/05 00:27:37;;;;;;;14.30;13.30;;;2.10;93.30;;;;;;4720930;30;20227;-48
2023/04/05 00:30:03;;;;;;;14.45;13.48;;;2.20;93.90;;;;;;4723235;30;20266;-47
2023/04/05 00:32:29;;;;;;;14.73;13.82;;;2.20;94.20;;;;;;4739789;30;20553;-46
2023/04/05 00:34:55;;;;;;;15.43;14.43;;;2.20;94.30;;;;;;4738766;30;20193;-46
2023/04/05 00:37:21;;;;;;;15.47;14.30;;;2.30;94.40;;;;;;4739739;30;20188;-48
2023/04/05 00:39:46;;;;;;;15.27;14.23;;;2.30;94.30;;;;;;4739766;30;20200;-44
2023/04/05 00:42:13;;;;;;;14.93;13.83;;;2.30;94.60;;;;;;4739237;30;20206;-48
2023/04/05 00:44:39;;;;;;;15.07;14.05;;;2.30;94.50;;;;;;4733858;30;20257;-47
2023/04/05 00:47:06;;;;;;;15.43;14.43;;;2.30;94.50;;;;;;4738315;30;20240;-47
2023/04/05 00:49:34;;;;;;;14.55;13.43;;;2.30;94.20;;;;;;4739366;30;20189;-50
2023/04/05 00:52:00;;;;;;;15.40;14.30;;;2.30;94.00;;;;;;4739367;30;20593;-45
2023/04/05 00:54:29;;;;;;;14.80;13.80;;;2.30;93.50;;;;;;4731819;30;20764;-44
2023/04/05 00:56:56;;;;;;;14.60;13.70;;;2.30;93.70;;;;;;4735813;30;20187;-47
2023/04/05 00:59:22;;;;;;;14.63;13.70;;;2.30;94.10;;;;;;4739070;30;20682;-47
2023/04/05 01:02:05;;;;;;;14.13;13.30;;;2.30;94.10;;;;;;4739061;30;20192;-47
2023/04/05 01:04:35;;;;;;;13.98;13.05;;;2.30;94.10;;;;;;4729280;30;20454;-51
2023/04/05 01:07:10;;;;;;;13.50;12.70;;;2.40;94.00;;;;;;4739203;30;20910;-48
2023/04/05 01:09:59;;;;;;;14.65;13.63;;;2.40;93.70;;;;;;4738393;30;20192;-46
2023/04/05 01:12:33;;;;;;;14.18;13.38;;;2.40;93.80;;;;;;4723586;30;20320;-46
2023/04/05 01:14:59;;;;;;;14.50;13.50;;;2.40;93.60;;;;;;4738893;30;20226;-43
2023/04/05 01:17:27;;;;;;;15.00;13.90;;;2.40;93.60;;;;;;4739003;30;20197;-51
2023/04/05 01:19:58;;;;;;;14.30;13.40;;;2.50;93.80;;;;;;4738918;30;20209;-45
2023/04/05 01:22:50;;;;;;;14.73;13.73;;;2.40;93.70;;;;;;4739277;30;20196;-47
2023/04/05 01:25:19;;;;;;;15.75;14.60;;;2.40;94.10;;;;;;4728813;30;20263;-47
2023/04/05 01:27:50;;;;;;;16.17;14.82;;;2.30;94.10;;;;;;4737875;30;20299;-47
2023/04/05 01:30:20;;;;;;;14.85;14.00;;;2.30;94.60;;;;;;4730448;30;20199;-44
2023/04/05 01:33:04;;;;;;;15.02;14.02;;;2.30;94.50;;;;;;4728626;30;20200;-48
2023/04/05 01:35:45;;;;;;;16.05;14.60;;;2.30;94.50;;;;;;4733616;30;20185;-48
2023/04/05 01:38:16;;;;;;;14.90;13.90;;;2.30;94.60;;;;;;4738040;30;20647;-48
2023/04/05 01:40:42;;;;;;;14.52;13.43;;;2.20;95.10;;;;;;4738628;30;20232;-46
2023/04/05 01:43:15;;;;;;;15.13;14.13;;;2.20;94.70;;;;;;4738733;30;20196;-47
2023/04/05 01:45:43;;;;;;;15.65;14.65;;;2.20;94.70;;;;;;4738484;30;20260;-48
2023/04/05 01:48:08;;;;;;;14.77;13.88;;;2.30;94.70;;;;;;4738892;30;20525;-46
2023/04/05 01:50:34;;;;;;;13.63;12.83;;;2.30;94.90;;;;;;4738667;30;20193;-48
2023/04/05 01:53:00;;;;;;;14.30;13.40;;;2.30;95.00;;;;;;4733708;30;20560;-47
2023/04/05 01:55:25;;;;;;;14.73;13.83;;;2.40;95.20;;;;;;4737188;30;20649;-46
2023/04/05 01:57:55;;;;;;;15.17;14.27;;;2.40;95.20;;;;;;4738623;30;21384;-46
2023/04/05 02:00:22;;;;;;;14.65;13.55;;;2.40;95.10;;;;;;4737375;30;20203;-45
2023/04/05 02:02:47;;;;;;;13.85;12.85;;;2.40;95.10;;;;;;4737042;30;20201;-48
2023/04/05 02:05:13;;;;;;;14.00;13.20;;;2.40;94.80;;;;;;4732555;30;20246;-45
2023/04/05 02:07:38;;;;;;;14.90;13.90;;;2.30;94.60;;;;;;4737445;30;20266;-48
2023/04/05 02:10:05;;;;;;;14.93;14.00;;;2.30;95.00;;;;;;4741773;30;20265;-50
2023/04/05 02:12:30;;;;;;;14.85;13.85;;;2.30;95.10;;;;;;4738757;30;20197;-47
2023/04/05 02:14:57;;;;;;;13.60;12.67;;;2.30;94.80;;;;;;4733823;30;20684;-45
2023/04/05 02:17:23;;;;;;;14.75;13.85;;;2.30;95.20;;;;;;4741048;30;20204;-48
2023/04/05 02:19:51;;;;;;;13.80;12.90;;;2.30;95.30;;;;;;4741819;30;20197;-46
2023/04/05 02:22:17;;;;;;;14.43;13.40;;;2.30;95.10;;;;;;4722401;30;20863;-50
2023/04/05 02:24:43;;;;;;;14.10;13.20;;;2.30;95.20;;;;;;4741772;30;20720;-46
2023/04/05 02:27:09;;;;;;;14.00;13.13;;;2.30;95.00;;;;;;4741801;30;20226;-49
2023/04/05 02:29:35;;;;;;;14.37;13.40;;;2.20;94.90;;;;;;4741613;30;21137;-48
2023/04/05 02:32:01;;;;;;;14.20;13.30;;;2.30;95.20;;;;;;4740320;30;20533;-48
2023/04/05 02:34:27;;;;;;;13.10;12.30;;;2.20;95.50;;;;;;4741569;30;20189;-46
2023/04/05 02:36:53;;;;;;;14.17;13.20;;;2.20;95.20;;;;;;4740975;30;20223;-46
2023/04/05 02:39:19;;;;;;;13.70;12.80;;;2.20;95.50;;;;;;4740815;30;20223;-46
2023/04/05 02:41:45;;;;;;;14.70;13.80;;;2.20;95.60;;;;;;4741227;30;20212;-46
2023/04/05 02:44:11;;;;;;;14.65;13.70;;;2.20;95.50;;;;;;4740850;30;20586;-46
2023/04/05 02:46:37;;;;;;;14.20;13.20;;;2.20;95.70;;;;;;4740164;30;20229;-46
2023/04/05 02:49:03;;;;;;;14.27;13.37;;;2.20;95.90;;;;;;4741238;30;20239;-51
2023/04/05 02:51:28;;;;;;;13.20;12.23;;;2.20;96.10;;;;;;4736095;30;20185;-46
2023/04/05 02:53:54;;;;;;;14.50;13.47;;;2.20;96.50;;;;;;4737382;30;20200;-47
2023/04/05 02:56:20;;;;;;;14.13;13.13;;;2.20;96.30;;;;;;4741433;30;20197;-47
2023/04/05 02:58:48;;;;;;;13.73;12.82;;;2.20;96.30;;;;;;4740910;30;20185;-45
2023/04/05 03:01:16;;;;;;;13.93;13.10;;;2.20;96.50;;;;;;4740819;30;20227;-48
2023/04/05 03:03:42;;;;;;;13.80;12.90;;;2.20;96.60;;;;;;4739713;30;20197;-46
2023/04/05 03:06:11;;;;;;;13.80;12.50;;;2.20;97.00;;;;;;4739541;30;20203;-47
2023/04/05 03:08:37;;;;;;;14.73;13.75;;;2.30;97.00;;;;;;4740927;30;20974;-43
2023/04/05 03:11:06;;;;;;;15.23;14.23;;;2.30;96.90;;;;;;4741096;30;20362;-49
2023/04/05 03:13:32;;;;;;;14.18;13.27;;;2.20;96.70;;;;;;4740349;30;20192;-42
2023/04/05 03:15:58;;;;;;;14.10;13.10;;;2.20;96.80;;;;;;4741032;30;20189;-42
2023/04/05 03:18:28;;;;;;;13.67;12.67;;;2.20;97.30;;;;;;4740715;30;20193;-44
2023/04/05 03:20:57;;;;;;;13.75;12.90;;;2.30;97.70;;;;;;4741011;30;20197;-47
2023/04/05 03:23:28;;;;;;;14.00;13.10;;;2.30;97.80;;;;;;4740730;30;20284;-51
2023/04/05 03:26:00;;;;;;;14.07;13.10;;;2.30;97.60;;;;;;4740410;30;20185;-48
2023/04/05 03:28:26;;;;;;;13.23;12.32;;;2.30;97.80;;;;;;4724107;30;20217;-45
2023/04/05 03:30:52;;;;;;;14.70;13.55;;;2.30;97.80;;;;;;4739548;30;20197;-48
2023/04/05 03:33:19;;;;;;;13.38;12.57;;;2.30;97.80;;;;;;4738489;30;20272;-46
2023/04/05 03:35:45;;;;;;;13.95;12.95;;;2.30;97.40;;;;;;4740350;30;20687;-44
2023/04/05 03:38:11;;;;;;;14.27;13.35;;;2.30;97.10;;;;;;4740632;30;20732;-43
2023/04/05 03:40:37;;;;;;;16.15;15.15;;;2.30;97.20;;;;;;4739941;30;20709;-46
2023/04/05 03:43:03;;;;;;;13.27;12.27;;;2.30;97.30;;;;;;4739500;30;20207;-49
2023/04/05 03:45:28;;;;;;;13.00;12.30;;;2.30;97.70;;;;;;4740130;30;20434;-46
2023/04/05 03:47:55;;;;;;;13.80;12.80;;;2.30;97.70;;;;;;4739291;30;20220;-47
2023/04/05 03:50:20;;;;;;;13.20;12.15;;;2.30;97.80;;;;;;4739961;30;20430;-48
2023/04/05 03:52:46;;;;;;;13.37;12.37;;;2.20;97.60;;;;;;4737237;30;20200;-45
2023/04/05 03:55:12;;;;;;;13.10;12.30;;;2.20;97.90;;;;;;4740251;30;20192;-44
2023/04/05 03:57:38;;;;;;;14.00;12.88;;;2.20;98.10;;;;;;4740120;30;20775;-43
2023/04/05 04:00:13;;;;;;;13.10;12.05;;;2.20;98.80;;;;;;4739462;30;20236;-46
2023/04/05 04:02:46;;;;;;;14.38;13.38;;;2.20;98.70;;;;;;4739369;30;20192;-45
2023/04/05 04:05:13;;;;;;;13.63;12.73;;;2.20;98.40;;;;;;4740076;30;20672;-48
2023/04/05 04:07:40;;;;;;;12.43;11.63;;;2.20;98.20;;;;;;4739943;30;20216;-44
2023/04/05 04:10:07;;;;;;;12.88;12.07;;;2.20;98.00;;;;;;4723844;30;20245;-44
2023/04/05 04:12:33;;;;;;;14.20;13.30;;;2.20;98.20;;;;;;4740199;30;20211;-47
2023/04/05 04:14:58;;;;;;;14.10;13.20;;;2.20;98.40;;;;;;4738206;30;20185;-46
2023/04/05 04:17:32;;;;;;;13.00;12.20;;;2.30;98.70;;;;;;4740049;30;20200;-47
2023/04/05 04:19:58;;;;;;;14.15;13.05;;;2.30;98.90;;;;;;4723705;30;21315;-46
2023/04/05 04:22:37;;;;;;;14.05;13.10;;;2.30;99.10;;;;;;4739202;30;20211;-44
2023/04/05 04:25:04;;;;;;;14.15;13.05;;;2.30;99.60;;;;;;4736550;30;20209;-41
2023/04/05 04:27:31;;;;;;;13.10;12.10;;;2.30;99.60;;;;;;4739708;30;20719;-47
2023/04/05 04:30:02;;;;;;;14.88;13.88;;;2.30;99.80;;;;;;4729412;30;20193;-42
2023/04/05 04:32:46;;;;;;;13.50;12.50;;;2.30;99.90;;;;;;4739024;30;20710;-40
2023/04/05 04:35:19;;;;;;;14.15;13.15;;;2.30;99.90;;;;;;4738942;30;20196;-41
2023/04/05 04:37:46;;;;;;;14.00;12.90;;;2.30;99.90;;;;;;4738675;30;20754;-42
2023/04/05 04:40:16;;;;;;;14.38;13.25;;;2.30;99.90;;;;;;4738586;30;20723;-40
2023/04/05 04:42:47;;;;;;;14.27;13.23;;;2.30;99.90;;;;;;4739447;30;20229;-40
2023/04/05 04:45:17;;;;;;;13.50;12.60;;;2.30;99.90;;;;;;4738111;30;20197;-42
2023/04/05 04:47:47;;;;;;;13.45;12.48;;;2.40;99.90;;;;;;4736705;30;20279;-41
2023/04/05 04:50:14;;;;;;;14.00;13.10;;;2.30;99.90;;;;;;4737747;30;20196;-42
2023/04/05 04:52:41;;;;;;;13.75;12.75;;;2.30;99.90;;;;;;4725637;30;20208;-42
2023/04/05 04:55:08;;;;;;;12.70;11.80;;;2.30;99.90;;;;;;4731245;30;20250;-42
2023/04/05 04:57:34;;;;;;;14.00;13.13;;;2.30;99.90;;;;;;4739422;30;20680;-42
2023/04/05 05:00:00;;;;;;;15.30;13.90;;;2.30;99.90;;;;;;4735476;30;20189;-41
2023/04/05 05:02:28;;;;;;;14.00;13.10;;;2.30;99.90;;;;;;4739087;30;20958;-41
2023/04/05 05:04:54;;;;;;;15.30;14.20;;;2.20;99.90;;;;;;4736992;30;20593;-42
2023/04/05 05:07:20;;;;;;;13.87;12.87;;;2.20;99.90;;;;;;4738884;30;20208;-42
2023/04/05 05:09:46;;;;;;;14.52;13.52;;;2.20;99.90;;;;;;4739129;30;20680;-41
2023/04/05 05:12:13;;;;;;;14.85;13.75;;;2.20;99.90;;;;;;4739531;30;20188;-41
2023/04/05 05:14:38;;;;;;;13.90;13.00;;;2.10;99.90;;;;;;4739062;30;20193;-42
2023/04/05 05:17:05;;;;;;;16.10;14.80;;;2.10;99.90;;;;;;4739133;30;20227;-42
2023/04/05 05:19:31;;;;;;;14.65;13.60;;;2.00;99.90;;;;;;4731652;30;20201;-43
2023/04/05 05:21:57;;;;;;;14.40;13.40;;;2.00;99.90;;;;;;4739022;30;20203;-43
2023/04/05 05:24:23;;;;;;;14.47;13.37;;;1.90;99.90;;;;;;4739273;30;20439;-40
2023/04/05 05:26:49;;;;;;;15.93;14.73;;;1.90;99.90;;;;;;4738966;30;20415;-43
2023/04/05 05:29:15;;;;;;;15.30;14.20;;;1.80;99.90;;;;;;4729394;30;20331;-40
2023/04/05 05:31:40;;;;;;;15.50;14.40;;;1.80;99.90;;;;;;4737135;30;20205;-42
2023/04/05 05:34:06;;;;;;;17.00;15.70;;;1.70;99.90;;;;;;4739303;30;20617;-44
2023/04/05 05:36:32;;;;;;;17.17;15.73;;;1.70;99.90;;;;;;4738906;30;20200;-41
2023/04/05 05:38:58;;;;;;;17.40;16.00;;;1.80;99.90;;;;;;4739099;30;20286;-41
2023/04/05 05:41:23;;;;;;;18.73;16.40;;;1.80;99.90;;;;;;4739283;30;20365;-42
2023/04/05 05:43:49;;;;;;;16.97;15.47;;;1.70;99.90;;;;;;4740522;30;20334;-41
2023/04/05 05:46:15;;;;;;;18.83;17.13;;;1.70;99.90;;;;;;4735267;30;20302;-43
2023/04/05 05:48:40;;;;;;;19.07;17.40;;;1.80;99.90;;;;;;4735145;30;20705;-42
2023/04/05 05:51:09;;;;;;;18.47;16.90;;;1.80;99.90;;;;;;4730165;30;20473;-41
2023/04/05 05:53:38;;;;;;;17.80;16.40;;;1.80;99.90;;;;;;4726523;30;20217;-42
2023/04/05 05:56:05;;;;;;;18.15;16.75;;;1.80;99.90;;;;;;4742784;30;20185;-41
2023/04/05 05:58:31;;;;;;;18.05;16.55;;;1.90;99.90;;;;;;4742520;30;20196;-43
2023/04/05 06:00:58;;;;;;;17.83;16.42;;;1.90;99.90;;;;;;4741970;30;20257;-41
2023/04/05 06:03:24;;;;;;;19.08;17.52;;;1.90;99.90;;;;;;4741955;30;20204;-42
2023/04/05 06:05:57;;;;;;;18.20;16.70;;;2.00;99.90;;;;;;4741619;30;20289;-41
2023/04/05 06:08:23;;;;;;;17.90;16.60;;;2.00;99.90;;;;;;4726234;30;20217;-41
2023/04/05 06:10:51;;;;;;;15.57;14.38;;;2.00;99.90;;;;;;4742091;30;20249;-45
2023/04/05 06:13:16;;;;;;;17.20;15.90;;;2.00;99.90;;;;;;4742101;30;20904;-48
2023/04/05 06:15:42;;;;;;;18.10;16.60;;;2.10;99.90;;;;;;4741190;30;20182;-46
2023/04/05 06:18:08;;;;;;;16.47;15.17;;;2.20;99.90;;;;;;4742071;30;20583;-42
2023/04/05 06:20:39;;;;;;;16.30;15.00;;;2.20;99.90;;;;;;4741576;30;20468;-48
2023/04/05 06:23:05;;;;;;;16.80;15.38;;;2.30;99.90;;;;;;4741828;30;20653;-52
2023/04/05 06:25:30;;;;;;;16.58;15.27;;;2.30;99.90;;;;;;4730419;30;20197;-46
2023/04/05 06:27:56;;;;;;;18.30;16.80;;;2.40;99.90;;;;;;4742430;30;20217;-49
2023/04/05 06:30:21;;;;;;;17.47;16.07;;;2.50;99.90;;;;;;4741476;30;20888;-51
2023/04/05 06:32:53;;;;;;;18.40;16.83;;;2.60;99.90;;;;;;4741896;30;20242;-44
2023/04/05 06:35:19;;;;;;;15.90;14.80;;;2.70;99.90;;;;;;4735165;30;20183;-49
2023/04/05 06:37:45;;;;;;;16.73;15.20;;;2.80;99.90;;;;;;4741769;30;20671;-47
2023/04/05 06:40:10;;;;;;;16.70;15.30;;;2.80;99.90;;;;;;4741424;30;20228;-46
2023/04/05 06:42:36;;;;;;;16.90;15.60;;;2.90;99.90;;;;;;4741862;30;20200;-47
2023/04/05 06:45:04;;;;;;;17.60;16.30;;;3.00;99.90;;;;;;4739838;30;20544;-48
2023/04/05 06:47:37;;;;;;;17.58;16.35;;;3.00;99.90;;;;;;4722430;30;20241;-47
2023/04/05 06:50:05;;;;;;;16.88;15.68;;;3.10;99.90;;;;;;4739185;30;20724;-47
2023/04/05 06:52:32;;;;;;;17.60;16.30;;;3.10;99.90;;;;;;4734515;30;20273;-45
2023/04/05 06:54:58;;;;;;;17.63;16.10;;;3.20;99.90;;;;;;4741061;30;20200;-48
2023/04/05 06:57:23;;;;;;;17.20;15.80;;;3.30;99.90;;;;;;4741304;30;20192;-45
2023/04/05 06:59:51;;;;;;;17.27;15.67;;;3.40;99.90;;;;;;4741061;30;20499;-46
2023/04/05 07:02:17;;;;;;;16.75;15.45;;;3.50;99.90;;;;;;4741254;30;20450;-46
2023/04/05 07:04:43;;;;;;;16.53;15.23;;;3.60;99.20;;;;;;4729676;30;20508;-45
2023/04/05 07:07:09;;;;;;;18.97;17.50;;;3.70;99.10;;;;;;4741184;30;20884;-52
2023/04/05 07:09:35;;;;;;;17.42;15.68;;;3.80;99.40;;;;;;4741598;30;20184;-47
2023/04/05 07:12:04;;;;;;;17.92;16.33;;;3.90;98.30;;;;;;4724936;30;20711;-47
2023/04/05 07:14:31;;;;;;;18.35;17.05;;;4.00;97.60;;;;;;4741215;30;20751;-43
2023/04/05 07:16:57;;;;;;;17.35;16.05;;;4.20;96.60;;;;;;4741114;30;20197;-48
2023/04/05 07:19:23;;;;;;;18.10;16.50;;;4.20;96.10;;;;;;4741134;30;20251;-46
2023/04/05 07:21:48;;;;;;;18.13;16.57;;;4.30;95.50;;;;;;4740796;30;20435;-50
2023/04/05 07:24:14;;;;;;;17.60;16.20;;;4.30;95.60;;;;;;4741074;30;20250;-46
2023/04/05 07:26:40;;;;;;;17.87;16.67;;;4.40;95.20;;;;;;4741056;30;20200;-45
2023/04/05 07:29:07;;;;;;;18.40;17.00;;;4.40;94.40;;;;;;4740695;30;20370;-46
2023/04/05 07:31:33;;;;;;;17.60;16.25;;;4.50;94.20;;;;;;4740862;30;20193;-48
2023/04/05 07:34:00;;;;;;;18.80;17.10;;;4.60;93.80;;;;;;4740120;30;20326;-47
2023/04/05 07:36:26;;;;;;;16.90;15.65;;;4.70;93.50;;;;;;4740194;30;20199;-47
2023/04/05 07:38:53;;;;;;;16.58;15.38;;;4.80;92.80;;;;;;4740577;30;20209;-45
2023/04/05 07:41:19;;;;;;;17.25;15.75;;;5.00;92.80;;;;;;4740320;30;20200;-44
2023/04/05 07:43:45;;;;;;;18.23;16.92;;;5.00;91.70;;;;;;4740597;30;21128;-50
2023/04/05 07:46:11;;;;;;;18.13;16.92;;;5.20;91.20;;;;;;4730772;30;20240;-48
2023/04/05 07:48:37;;;;;;;18.10;16.80;;;5.30;91.30;;;;;;4738606;30;20223;-46
2023/04/05 07:51:04;;;;;;;17.57;16.27;;;5.50;89.70;;;;;;4730803;30;20479;-47
2023/04/05 07:53:30;;;;;;;16.85;15.73;;;5.50;88.40;;;;;;4721810;30;20454;-46
2023/04/05 07:55:56;;;;;;;15.40;14.35;;;5.60;88.50;;;;;;4739973;30;20243;-50
2023/04/05 07:58:22;;;;;;;16.55;15.25;;;5.70;88.70;;;;;;4740496;30;20195;-46
2023/04/05 08:00:48;;;;;;;15.40;14.40;;;5.80;85.10;;;;;;4740019;30;20192;-45
2023/04/05 08:03:13;;;;;;;15.43;14.23;;;5.80;84.60;;;;;;4740081;30;20553;-44
2023/04/05 08:05:39;;;;;;;16.37;15.27;;;5.90;82.70;;;;;;4739675;30;20570;-45
2023/04/05 08:08:07;;;;;;;15.17;14.17;;;6.00;79.50;;;;;;4739813;30;20225;-45
2023/04/05 08:10:37;;;;;;;13.93;12.90;;;6.00;78.60;;;;;;4739931;30;20601;-46
2023/04/05 08:13:05;;;;;;;15.10;14.10;;;6.10;78.10;;;;;;4739953;30;20185;-44
2023/04/05 08:15:32;;;;;;;14.00;13.10;;;6.30;80.80;;;;;;4739877;30;20192;-47
2023/04/05 08:17:57;;;;;;;16.02;14.82;;;6.40;80.80;;;;;;4730705;30;20684;-46
2023/04/05 08:20:23;;;;;;;14.30;13.30;;;6.60;77.30;;;;;;4738202;30;20547;-47
2023/04/05 08:22:48;;;;;;;15.80;14.50;;;6.70;73.80;;;;;;4739206;30;20235;-44
2023/04/05 08:25:14;;;;;;;15.30;14.30;;;6.80;72.70;;;;;;4739769;30;20213;-48
2023/04/05 08:27:40;;;;;;;15.10;14.20;;;7.00;72.80;;;;;;4739863;30;20339;-48
2023/04/05 08:30:07;;;;;;;15.10;13.87;;;7.20;71.00;;;;;;4739116;30;20456;-52
2023/04/05 08:32:33;;;;;;;14.10;13.20;;;7.50;71.40;;;;;;4739638;30;20513;-48
2023/04/05 08:34:59;;;;;;;15.07;14.03;;;7.80;69.00;;;;;;4740255;30;20434;-45
2023/04/05 08:37:24;;;;;;;15.60;14.40;;;8.10;65.00;;;;;;4735441;30;20490;-49
2023/04/05 08:39:50;;;;;;;14.90;13.80;;;8.20;62.10;;;;;;4730587;30;20358;-48
2023/04/05 08:42:22;;;;;;;14.77;13.87;;;8.20;60.40;;;;;;4739059;30;20204;-45
2023/04/05 08:44:51;;;;;;;15.47;14.23;;;8.20;60.70;;;;;;4739950;30;20648;-47
2023/04/05 08:47:18;;;;;;;14.60;13.50;;;8.40;60.10;;;;;;4738407;30;20485;-48
2023/04/05 08:49:45;;;;;;;14.83;13.93;;;8.80;63.30;;;;;;4737923;30;20434;-48
2023/04/05 08:52:10;;;;;;;14.00;13.20;;;9.30;62.40;;;;;;4731559;30;20824;-45
2023/04/05 08:54:36;;;;;;;14.80;13.97;;;10.00;58.70;;;;;;4739509;30;20428;-48
2023/04/05 08:57:07;;;;;;;14.40;13.50;;;10.20;55.60;;;;;;4739329;30;20428;-50
2023/04/05 08:59:35;;;;;;;14.30;13.50;;;10.50;53.50;;;;;;4739423;30;20669;-47
2023/04/05 09:02:05;;;;;;;14.50;13.60;;;10.50;52.70;;;;;;4738667;30;20943;-49
2023/04/05 09:04:38;;;;;;;15.77;14.77;;;10.90;52.00;;;;;;4736957;30;20666;-45
2023/04/05 09:07:07;;;;;;;14.20;13.40;;;11.20;51.10;;;;;;4738161;30;21060;-47
2023/04/05 09:09:36;;;;;;;14.47;13.50;;;11.40;48.00;;;;;;4738525;30;20435;-45
2023/04/05 09:12:03;;;;;;;13.60;12.80;;;11.10;47.80;;;;;;4739116;30;20445;-51
2023/04/05 09:14:32;;;;;;;14.23;13.33;;;11.10;46.40;;;;;;4739600;30;20418;-48
2023/04/05 09:17:00;;;;;;;13.47;12.77;;;10.70;46.00;;;;;;4738130;30;20450;-49
2023/04/05 09:19:26;;;;;;;14.60;13.70;;;10.30;46.90;;;;;;4738635;30;20423;-52
2023/04/05 09:22:03;;;;;;;15.00;13.90;;;10.40;47.70;;;;;;4739088;30;20932;-49
2023/04/05 09:24:39;;;;;;;14.33;13.30;;;10.40;47.20;;;;;;4739042;30;20294;-48
2023/04/05 09:27:10;;;;;;;13.50;12.70;;;10.80;47.10;;;;;;4738717;30;20437;-46
2023/04/05 09:29:38;;;;;;;14.87;13.70;;;10.80;47.20;;;;;;4739143;30;20449;-46
2023/04/05 09:32:05;;;;;;;12.40;11.70;;;10.80;46.40;;;;;;4738491;30;20444;-48
2023/04/05 09:34:32;;;;;;;13.93;13.10;;;10.90;47.20;;;;;;4739179;30;20798;-47
2023/04/05 09:36:59;;;;;;;15.00;14.00;;;11.80;45.90;;;;;;4739135;30;20513;-47
2023/04/05 09:39:31;;;;;;;14.20;13.40;;;12.50;43.00;;;;;;4739110;30;20441;-45
2023/04/05 09:42:11;;;;;;;13.63;12.63;;;12.90;42.00;;;;;;4738887;30;20441;-48
2023/04/05 09:45:01;;;;;;;13.80;13.00;;;12.80;41.70;;;;;;4738621;30;20484;-49
2023/04/05 09:47:33;;;;;;;13.23;12.53;;;12.10;40.10;;;;;;4732361;30;20503;-49
2023/04/05 09:50:00;;;;;;;14.27;13.30;;;11.40;41.00;;;;;;4737242;30;20914;-49
2023/04/05 09:52:33;;;;;;;12.83;12.13;;;11.30;43.40;;;;;;4730445;30;20457;-45
2023/04/05 09:55:01;;;;;;;13.37;12.47;;;11.20;42.50;;;;;;4738556;30;20434;-45
2023/04/05 09:57:32;;;;;;;13.17;12.40;;;10.80;44.10;;;;;;4738946;30;20911;-47
2023/04/05 10:00:00;;;;;;;13.53;12.53;;;10.70;44.70;;;;;;4736958;30;20488;-44
2023/04/05 10:02:38;;;;;;;13.07;12.27;;;10.50;44.40;;;;;;4738219;30;20432;-45
2023/04/05 10:05:14;;;;;;;13.40;12.57;;;10.30;44.70;;;;;;4738881;30;20979;-49
2023/04/05 10:07:40;;;;;;;13.77;12.87;;;10.30;44.60;;;;;;4738572;30;20480;-49
2023/04/05 10:10:08;;;;;;;11.93;11.10;;;10.80;44.10;;;;;;4737622;30;20436;-49
2023/04/05 10:12:37;;;;;;;13.20;12.30;;;11.30;42.20;;;;;;4739147;30;20526;-51
2023/04/05 10:15:04;;;;;;;12.70;11.90;;;11.40;43.20;;;;;;4738582;30;20804;-46
2023/04/05 10:17:48;;;;;;;13.50;12.50;;;11.50;42.60;;;;;;4738875;30;20437;-42
2023/04/05 10:20:23;;;;;;;12.83;12.13;;;11.60;43.80;;;;;;4730715;30;20887;-45
2023/04/05 10:23:04;;;;;;;14.00;12.90;;;11.60;42.80;;;;;;4737980;30;20450;-44
2023/04/05 10:25:43;;;;;;;13.87;12.83;;;11.30;41.50;;;;;;4735765;30;20445;-43
2023/04/05 10:28:34;;;;;;;13.17;12.43;;;11.20;42.20;;;;;;4738478;30;20482;-46
2023/04/05 10:31:23;;;;;;;13.23;12.53;;;10.90;43.90;;;;;;4731438;30;20514;-42
2023/04/05 10:34:05;;;;;;;14.53;13.60;;;10.80;44.70;;;;;;4741049;30;20431;-45
2023/04/05 10:36:41;;;;;;;12.80;12.00;;;10.70;43.60;;;;;;4740751;30;20935;-44
2023/04/05 10:39:43;;;;;;;14.00;13.07;;;10.80;43.60;;;;;;4741657;30;20498;-44
2023/04/05 10:42:27;;;;;;;13.57;12.87;;;11.00;44.20;;;;;;4728640;30;20539;-43
2023/04/05 10:45:01;;;;;;;13.30;12.50;;;11.20;41.60;;;;;;4741692;30;20453;-44
2023/04/05 10:47:30;;;;;;;13.20;12.33;;;11.00;39.20;;;;;;4739530;30;20526;-43
2023/04/05 10:49:59;;;;;;;15.63;14.63;;;11.00;41.00;;;;;;4739203;30;20427;-42
2023/04/05 10:52:25;;;;;;;44.53;41.33;;;11.30;40.90;;;;;;4738446;30;20430;-41
2023/04/05 10:54:51;;;;;;;14.83;13.93;;;11.80;41.40;;;;;;4739685;30;20423;-44
2023/04/05 10:57:18;;;;;;;13.30;12.50;;;12.40;41.10;;;;;;4734973;30;20949;-41
2023/04/05 10:59:45;;;;;;;13.70;12.90;;;13.30;40.30;;;;;;4741435;30;20427;-42
2023/04/05 11:02:12;;;;;;;13.97;13.17;;;13.70;37.70;;;;;;4740468;30;20523;-43
2023/04/05 11:04:39;;;;;;;14.13;13.23;;;14.10;36.20;;;;;;4741138;30;20439;-42
2023/04/05 11:07:13;;;;;;;12.93;12.23;;;14.00;34.20;;;;;;4723625;30;20435;-43
2023/04/05 11:10:03;;;;;;;17.30;16.30;;;13.90;34.40;;;;;;4729353;30;20513;-44
2023/04/05 11:13:02;;;;;;;12.67;12.03;;;13.50;32.90;;;;;;4741546;30;20430;-42
2023/04/05 11:15:30;;;;;;;12.47;11.77;;;13.10;32.40;;;;;;4714272;30;20450;-41
2023/04/05 11:18:10;;;;;;;12.73;12.03;;;12.90;33.80;;;;;;4739073;30;20486;-42
2023/04/05 11:21:12;;;;;;;11.87;11.23;;;12.40;33.80;;;;;;4740108;30;20867;-43
2023/04/05 11:24:00;;;;;;;14.13;13.23;;;12.10;36.40;;;;;;4728879;30;21037;-42
2023/04/05 11:26:43;;;;;;;13.13;12.33;;;12.00;38.50;;;;;;4734833;30;20525;-44
2023/04/05 11:29:10;;;;;;;13.47;12.50;;;11.20;40.60;;;;;;4740429;30;20514;-44
2023/04/05 11:31:55;;;;;;;12.13;11.43;;;10.80;42.80;;;;;;4739911;30;20445;-41
2023/04/05 11:34:23;;;;;;;13.70;12.80;;;10.60;42.30;;;;;;4739001;30;20903;-43
2023/04/05 11:36:49;;;;;;;13.70;12.97;;;10.50;41.90;;;;;;4741009;30;20514;-44
2023/04/05 11:39:20;;;;;;;13.70;12.90;;;10.30;41.80;;;;;;4740531;30;20495;-41
2023/04/05 11:42:07;;;;;;;12.80;12.00;;;10.00;39.60;;;;;;4739388;30;20464;-40
2023/04/05 11:44:47;;;;;;;13.47;12.37;;;9.50;40.40;;;;;;4739999;30;20458;-43
2023/04/05 11:47:16;;;;;;;12.03;11.33;;;8.90;40.70;;;;;;4740099;30;21335;-42
2023/04/05 11:49:42;;;;;;;12.60;11.97;;;8.90;41.50;;;;;;4738684;30;20576;-41
2023/04/05 11:52:19;;;;;;;12.60;11.90;;;8.90;42.60;;;;;;4733373;30;20431;-43
2023/04/05 11:54:45;;;;;;;12.67;11.87;;;8.60;41.30;;;;;;4740415;30;20445;-42
2023/04/05 11:57:22;;;;;;;13.43;12.63;;;8.50;41.90;;;;;;4739260;30;21260;-44
2023/04/05 11:59:52;;;;;;;12.50;11.80;;;8.40;42.10;;;;;;4740126;30;20437;-41
2023/04/05 12:02:17;;;;;;;12.30;11.40;;;8.50;43.00;;;;;;4733085;30;20438;-43
2023/04/05 12:04:43;;;;;;;12.40;11.80;;;8.60;42.70;;;;;;4740417;30;20839;-41
2023/04/05 12:07:17;;;;;;;12.87;12.17;;;8.50;43.00;;;;;;4740056;30;20431;-42
2023/04/05 12:09:59;;;;;;;12.10;11.50;;;8.80;43.80;;;;;;4740095;30;20193;-41
2023/04/05 12:12:24;;;;;;;13.07;12.17;;;9.20;42.70;;;;;;4733862;30;20747;-43
2023/04/05 12:14:50;;;;;;;12.57;11.90;;;9.60;42.70;;;;;;4739413;30;20929;-48
2023/04/05 12:17:15;;;;;;;14.10;13.30;;;9.90;43.30;;;;;;4739871;30;20201;-47
2023/04/05 12:19:42;;;;;;;14.47;13.47;;;10.00;40.70;;;;;;4740563;30;20194;-50
2023/04/05 12:22:07;;;;;;;14.47;13.47;;;10.40;41.70;;;;;;4737758;30;20198;-50
2023/04/05 12:24:34;;;;;;;13.03;12.20;;;10.40;38.90;;;;;;4732775;30;20459;-49
2023/04/05 12:26:59;;;;;;;13.30;12.60;;;10.50;39.30;;;;;;4739119;30;20437;-47
2023/04/05 12:29:25;;;;;;;12.97;12.27;;;10.80;40.30;;;;;;4723996;30;20883;-45
2023/04/05 12:31:51;;;;;;;13.53;12.80;;;11.20;38.60;;;;;;4739918;30;20442;-50
2023/04/05 12:34:24;;;;;;;13.90;13.00;;;11.40;38.50;;;;;;4723791;30;20203;-46
2023/04/05 12:36:51;;;;;;;13.17;12.47;;;11.60;36.90;;;;;;4737724;30;20188;-49
2023/04/05 12:39:17;;;;;;;13.07;12.27;;;11.60;36.30;;;;;;4740165;30;20589;-49
2023/04/05 12:41:42;;;;;;;13.37;12.60;;;11.80;36.80;;;;;;4738635;30;20942;-48